Time;durP1;ratioP1;P1;durP2;ratioP2;P2;SDS_P1;SDS_P2;PMS_P1;PMS_P2;Temp;Humidity;BMP_temperature;BMP_pressure;BME280_temperature;BME280_humidity;BME280_pressure;Samples;Min_cycle;Max_cycle;Signal;HPM_P1;HPM_P2
2023/05/12 00:00:43;;;;;;;2.13;2.03;;;;;;;10.92;100.00;96308.56;5060828;28;20226;-59
2023/05/12 00:03:10;;;;;;;2.20;2.10;;;;;;;10.93;100.00;96307.59;5068215;28;20543;-59
2023/05/12 00:05:36;;;;;;;2.03;1.93;;;;;;;10.92;100.00;96311.22;5070894;28;20229;-58
2023/05/12 00:08:02;;;;;;;4.93;2.30;;;;;;;10.90;100.00;96305.25;5065971;28;20214;-59
2023/05/12 00:10:31;;;;;;;3.67;2.07;;;;;;;10.94;100.00;96306.63;5058538;28;20207;-58
2023/05/12 00:12:57;;;;;;;2.57;1.63;;;;;;;10.94;100.00;96306.63;5055819;28;20237;-59
2023/05/12 00:15:24;;;;;;;1.90;1.80;;;;;;;11.01;100.00;96298.06;5066000;28;20218;-58
2023/05/12 00:17:51;;;;;;;2.10;1.90;;;;;;;10.95;100.00;96304.78;5059310;28;20218;-59
2023/05/12 00:20:18;;;;;;;1.90;1.80;;;;;;;10.95;100.00;96304.78;5076286;28;20586;-57
2023/05/12 00:22:44;;;;;;;1.90;1.30;;;;;;;10.96;100.00;96302.00;5055407;28;20242;-59
2023/05/12 00:25:11;;;;;;;1.30;1.27;;;;;;;10.99;100.00;96299.03;5062057;28;20217;-59
2023/05/12 00:27:39;;;;;;;2.73;1.80;;;;;;;10.99;100.00;96296.38;5055898;28;20306;-58
2023/05/12 00:30:06;;;;;;;2.00;1.90;;;;;;;10.99;100.00;96295.56;5075309;28;20218;-59
2023/05/12 00:32:33;;;;;;;1.53;1.50;;;;;;;10.98;100.00;96286.78;5074168;28;20213;-58
2023/05/12 00:34:59;;;;;;;1.70;1.60;;;;;;;10.98;100.00;96289.44;5056785;28;20207;-59
2023/05/12 00:37:27;;;;;;;1.33;1.30;;;;;;;11.01;100.00;96293.59;5056519;28;20266;-59
2023/05/12 00:39:53;;;;;;;1.70;1.33;;;;;;;10.98;100.00;96284.13;5056819;28;20234;-58
2023/05/12 00:42:19;;;;;;;1.37;1.27;;;;;;;10.97;100.00;96285.16;5067884;28;20237;-57
2023/05/12 00:44:47;;;;;;;4.00;1.27;;;;;;;10.99;100.00;96284.97;5056384;28;20203;-57
2023/05/12 00:47:14;;;;;;;1.23;1.23;;;;;;;11.02;100.00;96289.16;5055573;28;20207;-58
2023/05/12 00:49:41;;;;;;;1.30;1.20;;;;;;;10.95;100.00;96284.44;5055644;28;20539;-58
2023/05/12 00:52:08;;;;;;;1.37;1.10;;;;;;;10.91;100.00;96283.09;5055586;28;20291;-58
2023/05/12 00:54:37;;;;;;;2.60;1.03;;;;;;;10.87;100.00;96279.13;5055847;28;20468;-58
2023/05/12 00:57:04;;;;;;;4.00;1.33;;;;;;;10.90;100.00;96281.47;5075541;28;20202;-58
2023/05/12 00:59:31;;;;;;;1.10;1.10;;;;;;;10.87;100.00;96281.75;5067238;28;20213;-59
2023/05/12 01:01:58;;;;;;;1.70;0.87;;;;;;;10.90;100.00;96278.81;5078324;28;20228;-58
2023/05/12 01:04:25;;;;;;;0.93;0.93;;;;;;;10.89;100.00;96269.19;5087061;28;20207;-58
2023/05/12 01:06:55;;;;;;;1.33;1.23;;;;;;;10.89;100.00;96269.19;5067943;28;20203;-57
2023/05/12 01:09:23;;;;;;;3.13;1.07;;;;;;;10.88;100.00;96272.81;5055181;28;20203;-59
2023/05/12 01:11:50;;;;;;;1.70;1.10;;;;;;;10.88;100.00;96272.00;5055273;28;20230;-58
2023/05/12 01:14:16;;;;;;;2.30;1.40;;;;;;;10.83;100.00;96266.34;5061296;28;20210;-59
2023/05/12 01:16:46;;;;;;;2.20;1.30;;;;;;;10.84;100.00;96270.66;5059615;28;20284;-59
2023/05/12 01:19:22;;;;;;;3.17;1.30;;;;;;;10.88;100.00;96266.69;5054915;28;20590;-59
2023/05/12 01:21:49;;;;;;;2.20;1.30;;;;;;;10.87;100.00;96265.06;5062507;28;20242;-57
2023/05/12 01:24:17;;;;;;;1.70;1.60;;;;;;;10.86;100.00;96264.22;5066517;28;20198;-58
2023/05/12 01:26:45;;;;;;;2.03;1.93;;;;;;;10.84;100.00;96260.09;5056288;28;20526;-58
2023/05/12 01:29:13;;;;;;;2.40;1.57;;;;;;;10.82;100.00;96260.22;5055105;28;20203;-58
2023/05/12 01:31:40;;;;;;;1.63;1.63;;;;;;;10.82;100.00;96254.94;5054766;28;20207;-58
2023/05/12 01:34:06;;;;;;;2.63;1.80;;;;;;;10.88;100.00;96256.94;5054849;28;20537;-59
2023/05/12 01:36:33;;;;;;;3.37;2.27;;;;;;;10.86;100.00;96253.66;5054718;28;20224;-58
2023/05/12 01:38:59;;;;;;;1.90;1.80;;;;;;;10.87;100.00;96260.59;5068374;28;20206;-58
2023/05/12 01:41:26;;;;;;;2.37;2.07;;;;;;;10.86;100.00;96264.22;5056337;28;20234;-58
2023/05/12 01:43:54;;;;;;;2.80;1.67;;;;;;;10.87;100.00;96260.59;5054569;28;20246;-58
2023/05/12 01:46:20;;;;;;;1.13;1.10;;;;;;;10.87;100.00;96265.06;5059921;28;20217;-59
2023/05/12 01:48:46;;;;;;;1.10;1.00;;;;;;;10.84;100.00;96275.94;5071947;28;20210;-60
2023/05/12 01:51:13;;;;;;;0.93;0.93;;;;;;;10.79;100.00;96271.13;5069501;28;20646;-59
2023/05/12 01:53:39;;;;;;;2.77;0.80;;;;;;;10.75;100.00;96275.03;5054832;28;20215;-59
2023/05/12 01:56:06;;;;;;;1.90;0.90;;;;;;;10.77;100.00;96273.06;5062866;28;20241;-59
2023/05/12 01:58:33;;;;;;;2.47;1.10;;;;;;;10.83;100.00;96277.75;5055190;28;20207;-59
2023/05/12 02:01:00;;;;;;;1.27;1.27;;;;;;;10.81;100.00;96271.78;5053769;28;20199;-59
2023/05/12 02:03:27;;;;;;;2.17;2.07;;;;;;;10.84;100.00;96281.25;5053991;28;20288;-59
2023/05/12 02:05:53;;;;;;;1.67;1.57;;;;;;;10.83;100.00;96288.34;5054050;28;20588;-60
2023/05/12 02:08:20;;;;;;;1.53;1.43;;;;;;;10.83;100.00;96290.97;5056683;28;20264;-59
2023/05/12 02:10:46;;;;;;;2.80;1.70;;;;;;;10.85;100.00;96288.16;5053913;28;20203;-59
2023/05/12 02:13:13;;;;;;;1.60;1.47;;;;;;;10.81;100.00;96286.81;5053650;28;20237;-59
2023/05/12 02:15:39;;;;;;;1.43;1.33;;;;;;;10.82;100.00;96281.38;5064792;28;20218;-59
2023/05/12 02:18:07;;;;;;;1.60;1.50;;;;;;;10.81;100.00;96284.16;5054670;28;20220;-59
2023/05/12 02:20:35;;;;;;;2.07;1.00;;;;;;;10.78;100.00;96284.47;5053630;28;20200;-59
2023/05/12 02:23:01;;;;;;;2.37;1.73;;;;;;;10.79;100.00;96284.34;5053225;28;20740;-59
2023/05/12 02:25:28;;;;;;;1.07;1.07;;;;;;;10.83;100.00;96284.88;5060873;28;20257;-58
2023/05/12 02:27:54;;;;;;;0.90;0.90;;;;;;;10.79;100.00;96286.16;5053961;28;20199;-58
2023/05/12 02:30:21;;;;;;;2.10;1.10;;;;;;;10.77;100.00;96283.63;5053934;28;20211;-60
2023/05/12 02:32:47;;;;;;;1.30;1.30;;;;;;;10.77;100.00;96274.91;5053476;28;20218;-59
2023/05/12 02:35:15;;;;;;;2.13;1.83;;;;;;;10.75;100.00;96277.69;5054199;28;20211;-59
2023/05/12 02:37:41;;;;;;;2.30;2.10;;;;;;;10.81;100.00;96271.78;5055186;28;20708;-59
2023/05/12 02:40:09;;;;;;;3.17;2.20;;;;;;;10.83;100.00;96269.00;5070072;28;20268;-59
2023/05/12 02:42:37;;;;;;;2.37;2.27;;;;;;;10.84;100.00;96273.31;5057182;28;20669;-59
2023/05/12 02:45:05;;;;;;;3.27;2.37;;;;;;;10.86;100.00;96272.16;5057296;28;20884;-58
2023/05/12 02:47:31;;;;;;;3.07;2.87;;;;;;;10.87;100.00;96270.34;5070237;28;20252;-60
2023/05/12 02:49:58;;;;;;;3.93;3.63;;;;;;;10.86;100.00;96274.81;5073401;28;20218;-57
2023/05/12 02:52:26;;;;;;;4.20;3.70;;;;;;;10.86;100.00;96274.81;5073137;28;20210;-59
2023/05/12 02:54:52;;;;;;;7.37;4.57;;;;;;;10.88;100.00;96272.81;5073947;28;20198;-59
2023/05/12 02:57:19;;;;;;;5.13;4.73;;;;;;;10.90;100.00;96264.75;5073636;28;20226;-59
2023/05/12 02:59:45;;;;;;;4.70;4.40;;;;;;;10.90;100.00;96257.66;5072459;28;20206;-60
2023/05/12 03:02:12;;;;;;;6.50;3.80;;;;;;;10.90;100.00;96262.09;5073020;28;20229;-59
2023/05/12 03:04:38;;;;;;;4.20;3.57;;;;;;;10.93;100.00;96259.97;5073566;28;20227;-59
2023/05/12 03:07:05;;;;;;;3.77;3.47;;;;;;;10.91;100.00;96266.41;5074371;28;20207;-59
2023/05/12 03:09:33;;;;;;;2.73;2.63;;;;;;;10.92;100.00;96258.31;5074671;28;20215;-59
2023/05/12 03:12:00;;;;;;;3.43;3.07;;;;;;;10.90;100.00;96257.66;5073559;28;20208;-59
2023/05/12 03:14:27;;;;;;;3.30;3.10;;;;;;;10.96;100.00;96262.31;5072587;28;20583;-59
2023/05/12 03:16:53;;;;;;;3.00;2.80;;;;;;;10.96;100.00;96262.31;5072780;28;20206;-59
2023/05/12 03:19:20;;;;;;;3.33;3.13;;;;;;;11.00;100.00;96262.81;5072326;28;20203;-59
2023/05/12 03:21:46;;;;;;;3.40;3.10;;;;;;;10.94;100.00;96261.66;5074874;28;20574;-59
2023/05/12 03:24:13;;;;;;;3.40;3.20;;;;;;;10.95;100.00;96255.34;5089206;28;20243;-59
2023/05/12 03:26:40;;;;;;;4.50;3.17;;;;;;;10.98;100.00;96262.16;5078637;28;20199;-59
2023/05/12 03:29:07;;;;;;;3.23;2.93;;;;;;;10.94;100.00;96256.34;5076846;28;20271;-58
2023/05/12 03:31:34;;;;;;;3.43;3.23;;;;;;;10.96;100.00;96259.66;5076560;28;20217;-59
2023/05/12 03:34:01;;;;;;;3.67;3.37;;;;;;;10.96;100.00;96257.03;5074811;28;20194;-57
2023/05/12 03:36:27;;;;;;;3.67;3.40;;;;;;;10.96;100.00;96254.38;5073406;28;20202;-58
2023/05/12 03:38:53;;;;;;;4.07;3.77;;;;;;;10.96;100.00;96250.88;5072684;28;20639;-58
2023/05/12 03:41:20;;;;;;;3.77;3.53;;;;;;;10.99;100.00;96248.75;5071939;28;20249;-58
2023/05/12 03:43:48;;;;;;;3.73;3.43;;;;;;;11.01;100.00;96251.28;5072083;28;20558;-59
2023/05/12 03:46:15;;;;;;;3.67;3.37;;;;;;;10.99;100.00;96255.88;5072342;28;20596;-58
2023/05/12 03:48:41;;;;;;;3.50;3.30;;;;;;;10.99;100.00;96254.06;5071996;28;20202;-59
2023/05/12 03:51:08;;;;;;;4.10;3.70;;;;;;;10.99;100.00;96238.19;5071751;28;20199;-59
2023/05/12 03:53:34;;;;;;;6.27;3.90;;;;;;;10.99;100.00;96243.47;5071745;28;20194;-59
2023/05/12 03:56:04;;;;;;;5.47;3.80;;;;;;;10.94;100.00;96243.13;5072174;28;20195;-59
2023/05/12 03:58:30;;;;;;;3.60;3.30;;;;;;;10.93;100.00;96244.09;5071816;28;20209;-58
2023/05/12 04:01:00;;;;;;;3.80;3.50;;;;;;;10.96;100.00;96242.97;5072143;28;20206;-59
2023/05/12 04:03:26;;;;;;;3.90;3.60;;;;;;;10.99;100.00;96237.34;5071631;28;20229;-58
2023/05/12 04:05:57;;;;;;;3.80;3.50;;;;;;;11.01;100.00;96245.16;5071752;28;20658;-58
2023/05/12 04:08:24;;;;;;;3.77;3.47;;;;;;;11.00;100.00;96236.38;5071072;28;20266;-59
2023/05/12 04:10:51;;;;;;;4.13;3.83;;;;;;;11.01;100.00;96248.63;5072346;28;20222;-59
2023/05/12 04:13:17;;;;;;;4.00;3.70;;;;;;;11.03;100.00;96237.88;5071354;28;20202;-58
2023/05/12 04:15:44;;;;;;;3.90;3.50;;;;;;;11.02;100.00;96241.53;5071854;28;20309;-58
2023/05/12 04:18:11;;;;;;;4.10;3.80;;;;;;;11.03;100.00;96243.16;5071185;28;20237;-59
2023/05/12 04:20:38;;;;;;;4.20;3.90;;;;;;;11.04;100.00;96239.53;5071647;28;20206;-58
2023/05/12 04:23:05;;;;;;;4.23;3.83;;;;;;;11.01;100.00;96245.16;5070638;28;20230;-59
2023/05/12 04:25:31;;;;;;;4.13;3.73;;;;;;;11.00;100.00;96244.31;5071390;28;20222;-59
2023/05/12 04:27:58;;;;;;;3.80;3.50;;;;;;;11.05;100.00;96247.34;5070497;28;20502;-59
2023/05/12 04:30:24;;;;;;;4.00;3.80;;;;;;;11.05;100.00;96249.16;5071895;28;20260;-58
2023/05/12 04:32:51;;;;;;;3.97;3.57;;;;;;;11.08;100.00;96249.66;5071243;28;20332;-59
2023/05/12 04:35:19;;;;;;;4.47;4.00;;;;;;;11.06;100.00;96254.25;5071838;28;20206;-58
2023/05/12 04:37:45;;;;;;;4.90;4.50;;;;;;;11.05;100.00;96251.78;5071376;28;20206;-58
2023/05/12 04:40:12;;;;;;;5.20;4.80;;;;;;;11.07;100.00;96263.03;5071614;28;20198;-59
2023/05/12 04:42:38;;;;;;;4.67;4.37;;;;;;;11.13;100.00;96254.47;5070862;28;20233;-58
2023/05/12 04:45:06;;;;;;;5.20;4.80;;;;;;;11.13;100.00;96259.75;5071576;28;20203;-59
2023/05/12 04:47:32;;;;;;;5.17;4.77;;;;;;;11.13;100.00;96263.25;5071421;28;20206;-58
2023/05/12 04:49:59;;;;;;;5.50;5.00;;;;;;;11.15;100.00;96263.09;5069442;28;20207;-57
2023/05/12 04:52:27;;;;;;;6.33;5.83;;;;;;;11.21;100.00;96262.47;5070524;28;20203;-58
2023/05/12 04:54:53;;;;;;;6.40;5.90;;;;;;;11.20;100.00;96260.78;5070793;28;20226;-58
2023/05/12 04:57:19;;;;;;;6.60;6.03;;;;;;;11.18;100.00;96268.91;5071256;28;20206;-59
2023/05/12 04:59:49;;;;;;;6.83;6.30;;;;;;;11.20;100.00;96274.03;5069598;28;20210;-59
2023/05/12 05:02:16;;;;;;;7.37;6.77;;;;;;;11.23;100.00;96271.91;5069979;28;20245;-59
2023/05/12 05:04:42;;;;;;;8.33;6.47;;;;;;;11.30;100.00;96266.84;5071180;28;20206;-58
2023/05/12 05:07:08;;;;;;;7.50;6.80;;;;;;;11.30;100.00;96274.78;5070498;28;20207;-58
2023/05/12 05:09:38;;;;;;;8.10;7.13;;;;;;;11.37;100.00;96273.16;5070967;28;20213;-59
2023/05/12 05:12:05;;;;;;;7.60;7.00;;;;;;;11.38;100.00;96272.16;5071105;28;20206;-56
2023/05/12 05:14:32;;;;;;;7.27;6.67;;;;;;;11.48;100.00;96273.72;5069786;28;20253;-58
2023/05/12 05:16:59;;;;;;;7.40;6.80;;;;;;;11.46;100.00;96277.50;5070187;28;20218;-58
2023/05/12 05:19:25;;;;;;;8.37;7.53;;;;;;;11.48;100.00;96276.34;5070614;28;20300;-57
2023/05/12 05:21:52;;;;;;;6.93;6.33;;;;;;;11.53;100.00;96281.19;5070299;28;20229;-58
2023/05/12 05:24:18;;;;;;;7.67;6.97;;;;;;;11.59;100.00;96283.19;5070509;28;20250;-58
2023/05/12 05:26:46;;;;;;;7.93;7.17;;;;;;;11.58;100.00;96276.25;5070585;28;20202;-58
2023/05/12 05:29:13;;;;;;;8.03;7.33;;;;;;;11.59;100.00;96275.25;5070042;28;20210;-58
2023/05/12 05:31:39;;;;;;;7.60;6.97;;;;;;;11.55;100.00;96276.56;5069884;28;20213;-57
2023/05/12 05:34:05;;;;;;;7.63;7.03;;;;;;;11.57;100.00;96285.19;5070845;28;20195;-57
2023/05/12 05:36:32;;;;;;;8.13;7.43;;;;;;;11.57;100.00;96287.84;5070380;28;20271;-58
2023/05/12 05:38:59;;;;;;;7.33;6.63;;;;;;;11.64;100.00;96288.88;5069872;28;20724;-58
2023/05/12 05:41:25;;;;;;;7.60;6.90;;;;;;;11.68;100.00;96287.56;5070021;28;20202;-58
2023/05/12 05:43:53;;;;;;;7.30;6.70;;;;;;;11.65;100.00;96290.53;5070041;28;20686;-57
2023/05/12 05:46:19;;;;;;;7.10;6.60;;;;;;;11.78;100.00;96293.59;5073210;28;20214;-59
2023/05/12 05:48:46;;;;;;;6.80;6.20;;;;;;;11.91;100.00;96293.97;5077737;28;20203;-58
2023/05/12 05:51:12;;;;;;;6.87;6.37;;;;;;;11.96;100.00;96293.50;5081912;28;20203;-59
2023/05/12 05:53:39;;;;;;;8.23;6.90;;;;;;;11.92;100.00;96294.81;5076792;28;20194;-59
2023/05/12 05:56:06;;;;;;;8.50;6.87;;;;;;;12.06;100.00;96285.41;5070439;28;20243;-58
2023/05/12 05:58:32;;;;;;;7.53;6.40;;;;;;;12.19;100.00;96285.78;5068883;28;20203;-59
2023/05/12 06:01:00;;;;;;;6.13;5.70;;;;;;;12.35;100.00;96285.84;5069801;28;20207;-59
2023/05/12 06:03:27;;;;;;;6.20;5.80;;;;;;;12.60;100.00;96290.19;5070032;28;20223;-58
2023/05/12 06:05:53;;;;;;;8.17;6.10;;;;;;;13.07;100.00;96298.34;5070071;28;20542;-59
2023/05/12 06:08:19;;;;;;;6.80;5.90;;;;;;;13.16;100.00;96281.44;5068849;28;20210;-59
2023/05/12 06:10:46;;;;;;;6.00;5.50;;;;;;;13.39;100.00;96292.19;5069962;28;20209;-57
2023/05/12 06:13:12;;;;;;;6.13;5.63;;;;;;;13.37;100.00;96294.19;5071164;28;20557;-58
2023/05/12 06:15:39;;;;;;;6.27;5.67;;;;;;;13.74;100.00;96290.94;5073514;28;20217;-59
2023/05/12 06:18:07;;;;;;;6.00;5.50;;;;;;;14.36;100.00;96295.34;5072914;28;20306;-59
2023/05/12 06:20:33;;;;;;;5.93;5.43;;;;;;;14.93;100.00;96292.31;5072816;28;20205;-58
2023/05/12 06:23:00;;;;;;;5.07;4.70;;;;;;;14.94;100.00;96293.97;5071847;28;20234;-59
2023/05/12 06:25:26;;;;;;;5.10;4.60;;;;;;;14.64;100.00;96295.66;5074089;28;20199;-58
2023/05/12 06:27:53;;;;;;;6.23;4.60;;;;;;;14.57;100.00;96304.53;5072096;28;20284;-58
2023/05/12 06:30:19;;;;;;;4.50;4.20;;;;;;;14.20;100.00;96307.88;5073730;28;20203;-59
2023/05/12 06:32:46;;;;;;;4.30;4.00;;;;;;;14.27;100.00;96307.00;5073255;28;20217;-58
2023/05/12 06:35:14;;;;;;;4.20;4.00;;;;;;;14.49;100.00;96302.75;5073519;28;20206;-58
2023/05/12 06:37:40;;;;;;;4.78;4.28;;;;;;;14.86;100.00;96305.50;5071459;28;20213;-59
2023/05/12 06:40:07;;;;;;;5.07;4.68;;;;;;;15.25;100.00;96312.50;5073415;28;20210;-59
2023/05/12 06:42:34;;;;;;;4.82;4.40;;;;;;;15.57;98.75;96300.75;5072480;28;20203;-58
2023/05/12 06:45:00;;;;;;;10.68;4.50;;;;;;;15.84;98.86;96306.28;5071800;28;20206;-59
2023/05/12 06:47:27;;;;;;;5.60;4.30;;;;;;;15.82;97.55;96300.31;5072315;28;20211;-59
2023/05/12 06:49:53;;;;;;;6.78;4.35;;;;;;;15.65;98.95;96301.50;5072914;28;20207;-59
2023/05/12 06:52:22;;;;;;;5.20;4.35;;;;;;;15.93;98.12;96293.69;5071887;28;20199;-59
2023/05/12 06:54:49;;;;;;;4.25;3.95;;;;;;;15.82;96.77;96302.16;5072981;28;20207;-59
2023/05/12 06:57:15;;;;;;;4.55;4.25;;;;;;;15.32;97.87;96294.81;5072525;28;20206;-59
2023/05/12 06:59:42;;;;;;;4.30;3.90;;;;;;;15.15;97.44;96299.44;5072130;28;20655;-59
2023/05/12 07:02:08;;;;;;;5.30;3.67;;;;;;;15.21;99.56;96304.06;5073007;28;20207;-58
2023/05/12 07:04:35;;;;;;;5.18;3.92;;;;;;;15.02;100.00;96304.53;5071886;28;20222;-59
2023/05/12 07:07:02;;;;;;;3.65;3.45;;;;;;;15.16;98.41;96294.97;5073075;28;20535;-59
2023/05/12 07:09:30;;;;;;;3.85;3.65;;;;;;;15.04;100.00;96301.69;5072571;28;20339;-58
2023/05/12 07:11:56;;;;;;;4.60;4.20;;;;;;;15.07;100.00;96296.84;5072072;28;20208;-59
2023/05/12 07:14:23;;;;;;;4.65;4.25;;;;;;;15.13;99.23;96298.78;5072423;28;20206;-59
2023/05/12 07:16:50;;;;;;;4.45;4.15;;;;;;;15.09;98.17;96299.34;5071919;28;20210;-58
2023/05/12 07:19:16;;;;;;;4.20;3.95;;;;;;;15.09;99.85;96294.81;5072220;28;20309;-59
2023/05/12 07:21:43;;;;;;;3.92;3.70;;;;;;;15.12;100.00;96291.81;5069872;28;20230;-60
2023/05/12 07:24:10;;;;;;;4.20;3.80;;;;;;;15.16;100.00;96295.75;5072594;28;20230;-60
2023/05/12 07:26:38;;;;;;;4.32;3.78;;;;;;;14.98;100.00;96297.09;5075246;28;20317;-60
2023/05/12 07:29:06;;;;;;;4.63;4.22;;;;;;;15.04;100.00;96297.22;5074269;28;20202;-58
2023/05/12 07:31:32;;;;;;;4.80;4.50;;;;;;;15.40;97.91;96289.41;5073854;28;20263;-58
2023/05/12 07:33:59;;;;;;;3.95;3.75;;;;;;;15.61;93.67;96294.06;5071850;28;20615;-58
2023/05/12 07:36:27;;;;;;;4.53;4.05;;;;;;;15.77;95.02;96292.03;5071901;28;20875;-59
2023/05/12 07:38:53;;;;;;;4.28;3.83;;;;;;;15.85;96.37;96289.28;5072721;28;20206;-58
2023/05/12 07:41:20;;;;;;;6.78;4.00;;;;;;;16.06;95.25;96293.84;5070204;28;20230;-59
2023/05/12 07:43:48;;;;;;;4.10;3.80;;;;;;;16.18;92.61;96291.56;5071146;28;21527;-59
2023/05/12 07:46:14;;;;;;;13.25;4.40;;;;;;;16.17;89.43;96292.56;5071774;28;20198;-61
2023/05/12 07:48:41;;;;;;;4.10;3.22;;;;;;;15.90;90.70;96294.91;5072703;28;20201;-60
2023/05/12 07:51:08;;;;;;;3.55;3.08;;;;;;;15.93;89.58;96289.19;5071942;28;20205;-59
2023/05/12 07:53:34;;;;;;;3.70;3.45;;;;;;;16.27;93.25;96285.91;5071719;28;20524;-59
2023/05/12 07:56:01;;;;;;;6.55;3.08;;;;;;;16.49;93.59;96278.78;5071993;28;20202;-61
2023/05/12 07:58:28;;;;;;;3.15;2.88;;;;;;;16.25;88.83;96287.13;5071123;28;20276;-60
2023/05/12 08:00:58;;;;;;;3.28;3.08;;;;;;;16.16;94.97;96278.38;5070688;28;20194;-60
2023/05/12 08:03:25;;;;;;;3.13;2.95;;;;;;;15.98;89.23;96277.16;5070541;28;20271;-60
2023/05/12 08:05:52;;;;;;;3.58;3.28;;;;;;;15.93;90.15;96273.19;5072180;28;20198;-60
2023/05/12 08:08:18;;;;;;;2.95;2.75;;;;;;;15.61;86.34;96270.91;5070710;28;20203;-60
2023/05/12 08:10:45;;;;;;;3.05;2.80;;;;;;;15.86;86.81;96274.94;5070744;28;20194;-59
2023/05/12 08:13:12;;;;;;;3.25;2.95;;;;;;;16.77;89.08;96271.72;5070764;28;20221;-59
2023/05/12 08:15:38;;;;;;;3.35;2.75;;;;;;;16.85;83.20;96265.44;5077630;28;20274;-61
2023/05/12 08:18:06;;;;;;;2.58;2.40;;;;;;;16.80;82.08;96275.84;5074225;28;20210;-60
2023/05/12 08:20:33;;;;;;;2.88;2.67;;;;;;;16.93;82.39;96273.34;5072088;28;20218;-61
2023/05/12 08:23:00;;;;;;;2.90;2.80;;;;;;;17.02;78.89;96274.00;5069179;28;20226;-61
2023/05/12 08:25:29;;;;;;;3.33;2.47;;;;;;;16.77;77.81;96279.75;5070503;28;20214;-59
2023/05/12 08:27:56;;;;;;;2.72;2.53;;;;;;;16.36;83.45;96276.81;5069896;28;20210;-59
2023/05/12 08:30:22;;;;;;;2.50;2.40;;;;;;;16.10;87.94;96275.66;5070786;28;20205;-60
2023/05/12 08:32:49;;;;;;;3.28;2.67;;;;;;;16.22;89.18;96271.50;5071013;28;20210;-60
2023/05/12 08:35:17;;;;;;;3.22;2.38;;;;;;;16.76;86.33;96267.41;5071693;28;20217;-61
2023/05/12 08:37:43;;;;;;;4.13;2.40;;;;;;;16.70;83.73;96265.50;5070377;28;20212;-61
2023/05/12 08:40:15;;;;;;;2.75;2.55;;;;;;;16.53;79.34;96272.06;5070276;28;20696;-60
2023/05/12 08:42:44;;;;;;;2.50;2.30;;;;;;;16.56;77.45;96271.72;5069351;28;20223;-59
2023/05/12 08:45:11;;;;;;;2.47;2.28;;;;;;;16.33;80.88;96268.34;5070796;28;20692;-59
2023/05/12 08:47:38;;;;;;;3.38;2.45;;;;;;;16.21;83.87;96277.84;5070694;28;20221;-59
2023/05/12 08:50:06;;;;;;;3.72;2.67;;;;;;;16.11;85.56;96280.81;5071102;28;20547;-59
2023/05/12 08:52:36;;;;;;;10.10;3.40;;;;;;;16.15;89.91;96275.94;5068852;28;20218;-59
2023/05/12 08:55:04;;;;;;;2.60;2.40;;;;;;;16.61;87.17;96277.31;5070387;28;20203;-60
2023/05/12 08:57:31;;;;;;;2.58;2.38;;;;;;;16.92;86.44;96274.34;5070098;28;20213;-60
2023/05/12 08:59:59;;;;;;;2.42;2.30;;;;;;;16.86;83.24;96265.22;5069987;28;20221;-60
2023/05/12 09:02:25;;;;;;;2.38;2.17;;;;;;;16.69;84.10;96274.50;5070415;28;20211;-60
2023/05/12 09:04:53;;;;;;;3.63;2.28;;;;;;;16.62;84.19;96265.59;5067961;28;20218;-61
2023/05/12 09:07:21;;;;;;;2.13;2.03;;;;;;;16.49;80.81;96272.63;5069181;28;20533;-61
2023/05/12 09:09:53;;;;;;;3.10;2.00;;;;;;;16.38;84.44;96261.44;5069957;28;20206;-61
2023/05/12 09:12:20;;;;;;;2.55;2.30;;;;;;;16.13;84.79;96267.28;5070319;28;20243;-60
2023/05/12 09:14:51;;;;;;;2.03;1.67;;;;;;;16.05;87.01;96270.06;5070465;28;20291;-60
2023/05/12 09:17:18;;;;;;;4.20;2.25;;;;;;;15.87;85.39;96271.25;5072051;28;20198;-58
2023/05/12 09:19:45;;;;;;;2.95;1.70;;;;;;;15.82;84.59;96267.50;5070118;28;20213;-59
2023/05/12 09:22:13;;;;;;;1.88;1.77;;;;;;;15.86;87.37;96266.94;5071479;28;20231;-60
2023/05/12 09:24:40;;;;;;;1.42;1.33;;;;;;;15.80;79.59;96270.31;5070152;28;20611;-59
2023/05/12 09:27:08;;;;;;;1.60;1.50;;;;;;;16.01;81.46;96279.44;5071306;28;20209;-59
2023/05/12 09:29:35;;;;;;;5.13;2.10;;;;;;;16.30;83.22;96258.84;5069875;28;20199;-61
2023/05/12 09:32:03;;;;;;;3.80;1.80;;;;;;;16.43;80.02;96263.53;5070570;28;20221;-60
2023/05/12 09:34:31;;;;;;;2.50;2.00;;;;;;;16.79;81.03;96261.66;5068926;28;20210;-60
2023/05/12 09:36:57;;;;;;;2.22;1.90;;;;;;;16.91;78.04;96262.00;5070447;28;20565;-59
2023/05/12 09:39:24;;;;;;;2.13;2.03;;;;;;;17.10;76.17;96261.34;5068267;28;20203;-66
2023/05/12 09:41:51;;;;;;;2.45;2.08;;;;;;;16.81;75.57;96251.63;5069778;28;20622;-63
2023/05/12 09:44:19;;;;;;;2.47;1.98;;;;;;;17.02;76.82;96255.31;5070219;28;20301;-60
2023/05/12 09:46:46;;;;;;;6.22;2.47;;;;;;;17.01;78.12;96251.81;5070021;28;20214;-60
2023/05/12 09:49:13;;;;;;;1.77;1.67;;;;;;;16.85;74.18;96258.25;5069724;28;20228;-59
2023/05/12 09:51:40;;;;;;;3.60;1.52;;;;;;;16.84;74.66;96253.91;5070049;28;20540;-59
2023/05/12 09:54:06;;;;;;;3.53;1.80;;;;;;;16.59;75.13;96252.63;5069519;28;20236;-59
2023/05/12 09:56:36;;;;;;;2.38;1.80;;;;;;;16.82;74.64;96255.97;5070144;28;20203;-59
2023/05/12 09:59:04;;;;;;;1.70;1.60;;;;;;;16.97;74.57;96255.88;5069209;28;20205;-59
2023/05/12 10:01:32;;;;;;;2.42;1.70;;;;;;;16.98;75.57;96243.34;5068921;28;20638;-59
2023/05/12 10:03:59;;;;;;;1.60;1.50;;;;;;;17.08;73.51;96246.50;5068181;28;20237;-60
2023/05/12 10:06:28;;;;;;;1.58;1.50;;;;;;;17.05;73.16;96247.72;5069375;28;20198;-60
2023/05/12 10:09:03;;;;;;;1.75;1.65;;;;;;;17.60;72.18;96246.97;5068381;28;20673;-59
2023/05/12 10:11:29;;;;;;;1.67;1.58;;;;;;;18.38;71.97;96251.03;5069706;28;20234;-60
2023/05/12 10:13:56;;;;;;;1.70;1.60;;;;;;;19.03;71.96;96242.34;5069276;28;20249;-60
2023/05/12 10:16:23;;;;;;;2.00;1.38;;;;;;;19.12;69.41;96237.59;5070194;28;20219;-60
2023/05/12 10:18:51;;;;;;;1.30;1.30;;;;;;;18.88;65.42;96247.88;5069851;28;20646;-61
2023/05/12 10:21:18;;;;;;;1.90;1.80;;;;;;;18.64;67.23;96245.78;5071660;28;20234;-59
2023/05/12 10:23:46;;;;;;;2.35;1.73;;;;;;;18.41;68.36;96237.25;5070760;28;20264;-61
2023/05/12 10:26:14;;;;;;;1.50;1.50;;;;;;;18.21;65.86;96244.41;5070835;28;20221;-61
2023/05/12 10:28:41;;;;;;;1.48;1.38;;;;;;;17.92;67.49;96237.47;5069035;28;20256;-60
2023/05/12 10:31:09;;;;;;;1.40;1.30;;;;;;;18.26;71.56;96234.72;5068998;28;20547;-59
2023/05/12 10:33:36;;;;;;;1.50;1.40;;;;;;;18.70;68.72;96223.56;5069630;28;20210;-59
2023/05/12 10:36:04;;;;;;;1.25;1.10;;;;;;;19.25;67.69;96221.50;5072041;28;20236;-59
2023/05/12 10:38:35;;;;;;;1.30;1.00;;;;;;;19.30;59.80;96221.72;5074027;28;20195;-60
2023/05/12 10:41:03;;;;;;;1.08;0.77;;;;;;;18.94;59.18;96221.31;5074658;28;20195;-61
2023/05/12 10:43:38;;;;;;;1.02;0.70;;;;;;;18.53;60.13;96229.50;5076411;28;20198;-60
2023/05/12 10:46:09;;;;;;;0.75;0.75;;;;;;;18.70;63.63;96220.06;5077289;28;20210;-61
2023/05/12 10:48:36;;;;;;;0.50;0.50;;;;;;;19.19;60.51;96211.63;5071771;28;20206;-60
2023/05/12 10:51:11;;;;;;;0.70;0.70;;;;;;;19.74;58.67;96216.53;5069546;28;20206;-59
2023/05/12 10:53:39;;;;;;;2.03;1.10;;;;;;;20.44;57.69;96211.34;5068754;28;20210;-58
2023/05/12 10:56:06;;;;;;;1.00;0.93;;;;;;;20.62;58.61;96214.94;5069530;28;20210;-60
2023/05/12 10:58:33;;;;;;;1.92;0.90;;;;;;;20.34;58.78;96206.41;5070461;28;20217;-60
2023/05/12 11:01:05;;;;;;;1.00;0.93;;;;;;;19.80;57.46;96212.19;5071734;28;20206;-59
2023/05/12 11:03:33;;;;;;;0.70;0.70;;;;;;;19.31;58.68;96216.16;5072112;28;20199;-61
2023/05/12 11:06:00;;;;;;;24.45;3.70;;;;;;;19.07;60.17;96221.31;5072635;28;20245;-60
2023/05/12 11:08:29;;;;;;;4.47;1.27;;;;;;;18.74;59.67;96222.09;5072513;28;20211;-61
2023/05/12 11:10:56;;;;;;;4.35;1.83;;;;;;;18.53;62.54;96221.47;5072517;28;20202;-61
2023/05/12 11:13:24;;;;;;;1.42;1.10;;;;;;;18.39;61.23;96215.19;5071071;28;20217;-60
2023/05/12 11:15:50;;;;;;;2.65;0.90;;;;;;;18.38;61.44;96218.91;5071723;28;20198;-64
2023/05/12 11:18:20;;;;;;;5.28;2.20;;;;;;;18.13;63.49;96223.97;5072245;28;20206;-59
2023/05/12 11:20:47;;;;;;;2.20;1.10;;;;;;;18.03;62.16;96220.03;5072430;28;20302;-59
2023/05/12 11:23:25;;;;;;;0.80;0.80;;;;;;;18.00;63.44;96220.41;5072134;28;20238;-60
2023/05/12 11:25:53;;;;;;;0.95;0.95;;;;;;;17.92;62.66;96216.88;5071941;28;20546;-59
2023/05/12 11:28:20;;;;;;;2.70;1.10;;;;;;;17.92;63.44;96219.53;5071851;28;20211;-59